sensor_id;sensor_type;location;lat;lon;timestamp;temperature;humidity
21019;DHT22;10667;51.056;3.732;2023-12-20T00:00:36;7.70;99.90
21019;DHT22;10667;51.056;3.732;2023-12-20T00:03:03;7.70;99.90
21019;DHT22;10667;51.056;3.732;2023-12-20T00:05:29;7.60;99.90
21019;DHT22;10667;51.056;3.732;2023-12-20T00:07:57;7.50;99.90
21019;DHT22;10667;51.056;3.732;2023-12-20T00:10:23;7.50;99.90
21019;DHT22;10667;51.056;3.732;2023-12-20T00:12:48;7.50;99.90
21019;DHT22;10667;51.056;3.732;2023-12-20T00:15:14;7.30;99.90
21019;DHT22;10667;51.056;3.732;2023-12-20T00:17:39;7.40;99.90
21019;DHT22;10667;51.056;3.732;2023-12-20T00:20:06;7.50;99.90
21019;DHT22;10667;51.056;3.732;2023-12-20T00:22:32;7.40;99.90
21019;DHT22;10667;51.056;3.732;2023-12-20T00:24:57;7.50;99.90
21019;DHT22;10667;51.056;3.732;2023-12-20T00:27:23;7.50;99.90
21019;DHT22;10667;51.056;3.732;2023-12-20T00:29:48;7.40;99.90
21019;DHT22;10667;51.056;3.732;2023-12-20T00:32:16;7.30;99.90
21019;DHT22;10667;51.056;3.732;2023-12-20T00:34:42;7.30;99.90
21019;DHT22;10667;51.056;3.732;2023-12-20T00:37:08;7.30;99.90
21019;DHT22;10667;51.056;3.732;2023-12-20T00:39:34;7.30;99.90
21019;DHT22;10667;51.056;3.732;2023-12-20T00:41:59;7.30;99.90
21019;DHT22;10667;51.056;3.732;2023-12-20T00:44:25;7.40;99.90
21019;DHT22;10667;51.056;3.732;2023-12-20T00:46:51;7.30;99.90
21019;DHT22;10667;51.056;3.732;2023-12-20T00:49:17;7.40;99.90
21019;DHT22;10667;51.056;3.732;2023-12-20T00:51:42;7.40;99.90
21019;DHT22;10667;51.056;3.732;2023-12-20T00:54:08;7.40;99.90
21019;DHT22;10667;51.056;3.732;2023-12-20T00:56:34;7.40;99.90
21019;DHT22;10667;51.056;3.732;2023-12-20T00:59:00;7.50;99.90
21019;DHT22;10667;51.056;3.732;2023-12-20T01:01:26;7.60;99.90
21019;DHT22;10667;51.056;3.732;2023-12-20T01:03:51;7.60;99.90
21019;DHT22;10667;51.056;3.732;2023-12-20T01:06:18;7.70;99.90
21019;DHT22;10667;51.056;3.732;2023-12-20T01:08:43;7.80;99.90
21019;DHT22;10667;51.056;3.732;2023-12-20T01:11:09;7.80;99.90
21019;DHT22;10667;51.056;3.732;2023-12-20T01:13:35;7.70;99.90
21019;DHT22;10667;51.056;3.732;2023-12-20T01:16:01;7.60;99.90
21019;DHT22;10667;51.056;3.732;2023-12-20T01:18:26;7.50;99.90
21019;DHT22;10667;51.056;3.732;2023-12-20T01:20:52;7.70;99.90
21019;DHT22;10667;51.056;3.732;2023-12-20T01:23:18;7.70;99.90
21019;DHT22;10667;51.056;3.732;2023-12-20T01:25:43;7.70;99.90
21019;DHT22;10667;51.056;3.732;2023-12-20T01:28:09;7.80;99.90
21019;DHT22;10667;51.056;3.732;2023-12-20T01:30:35;7.70;99.90
21019;DHT22;10667;51.056;3.732;2023-12-20T01:33:00;7.70;99.90
21019;DHT22;10667;51.056;3.732;2023-12-20T01:35:26;7.70;99.90
21019;DHT22;10667;51.056;3.732;2023-12-20T01:37:52;7.70;99.90
21019;DHT22;10667;51.056;3.732;2023-12-20T01:40:22;7.80;99.90
21019;DHT22;10667;51.056;3.732;2023-12-20T01:43:00;7.80;99.90
21019;DHT22;10667;51.056;3.732;2023-12-20T01:45:26;7.90;99.90
21019;DHT22;10667;51.056;3.732;2023-12-20T01:47:53;7.90;99.90
21019;DHT22;10667;51.056;3.732;2023-12-20T01:50:19;7.80;99.90
21019;DHT22;10667;51.056;3.732;2023-12-20T01:52:45;7.90;99.90
21019;DHT22;10667;51.056;3.732;2023-12-20T01:55:11;8.00;99.90
21019;DHT22;10667;51.056;3.732;2023-12-20T01:57:41;8.00;99.90
21019;DHT22;10667;51.056;3.732;2023-12-20T02:00:07;8.00;99.90
21019;DHT22;10667;51.056;3.732;2023-12-20T02:02:37;8.00;99.90
21019;DHT22;10667;51.056;3.732;2023-12-20T02:05:05;8.00;99.90
21019;DHT22;10667;51.056;3.732;2023-12-20T02:07:31;8.00;99.90
21019;DHT22;10667;51.056;3.732;2023-12-20T02:09:57;8.00;99.90
21019;DHT22;10667;51.056;3.732;2023-12-20T02:12:23;8.10;99.90
21019;DHT22;10667;51.056;3.732;2023-12-20T02:14:49;8.10;99.90
21019;DHT22;10667;51.056;3.732;2023-12-20T02:17:15;8.20;99.90
21019;DHT22;10667;51.056;3.732;2023-12-20T02:19:41;8.20;99.90
21019;DHT22;10667;51.056;3.732;2023-12-20T02:22:11;8.20;99.90
21019;DHT22;10667;51.056;3.732;2023-12-20T02:24:36;8.20;99.90
21019;DHT22;10667;51.056;3.732;2023-12-20T02:27:03;8.10;99.90
21019;DHT22;10667;51.056;3.732;2023-12-20T02:29:29;8.00;99.90
21019;DHT22;10667;51.056;3.732;2023-12-20T02:31:54;8.00;99.90
21019;DHT22;10667;51.056;3.732;2023-12-20T02:34:20;8.10;99.90
21019;DHT22;10667;51.056;3.732;2023-12-20T02:36:45;8.00;99.90
21019;DHT22;10667;51.056;3.732;2023-12-20T02:39:11;8.10;99.90
21019;DHT22;10667;51.056;3.732;2023-12-20T02:41:37;8.20;99.90
21019;DHT22;10667;51.056;3.732;2023-12-20T02:44:03;8.30;99.90
21019;DHT22;10667;51.056;3.732;2023-12-20T02:46:29;8.30;99.90
21019;DHT22;10667;51.056;3.732;2023-12-20T02:48:54;8.30;99.90
21019;DHT22;10667;51.056;3.732;2023-12-20T02:51:20;8.20;99.90
21019;DHT22;10667;51.056;3.732;2023-12-20T02:53:46;8.30;99.90
21019;DHT22;10667;51.056;3.732;2023-12-20T02:56:11;8.30;99.90
21019;DHT22;10667;51.056;3.732;2023-12-20T02:58:37;8.30;99.90
21019;DHT22;10667;51.056;3.732;2023-12-20T03:01:03;8.30;99.90
21019;DHT22;10667;51.056;3.732;2023-12-20T03:03:29;8.30;99.90
21019;DHT22;10667;51.056;3.732;2023-12-20T03:05:55;8.30;99.90
21019;DHT22;10667;51.056;3.732;2023-12-20T03:08:20;8.40;99.90
21019;DHT22;10667;51.056;3.732;2023-12-20T03:10:46;8.30;99.90
21019;DHT22;10667;51.056;3.732;2023-12-20T03:13:12;8.30;99.90
21019;DHT22;10667;51.056;3.732;2023-12-20T03:15:37;8.10;99.90
21019;DHT22;10667;51.056;3.732;2023-12-20T03:18:03;8.10;99.90
21019;DHT22;10667;51.056;3.732;2023-12-20T03:20:29;8.10;99.90
21019;DHT22;10667;51.056;3.732;2023-12-20T03:22:58;8.10;99.90
21019;DHT22;10667;51.056;3.732;2023-12-20T03:25:24;8.20;99.90
21019;DHT22;10667;51.056;3.732;2023-12-20T03:27:49;8.20;99.90
21019;DHT22;10667;51.056;3.732;2023-12-20T03:30:15;8.30;99.90
21019;DHT22;10667;51.056;3.732;2023-12-20T03:32:40;8.40;99.90
21019;DHT22;10667;51.056;3.732;2023-12-20T03:35:06;8.40;99.90
21019;DHT22;10667;51.056;3.732;2023-12-20T03:37:32;8.40;99.90
21019;DHT22;10667;51.056;3.732;2023-12-20T03:39:57;8.40;99.90
21019;DHT22;10667;51.056;3.732;2023-12-20T03:42:23;8.40;99.90
21019;DHT22;10667;51.056;3.732;2023-12-20T03:44:49;8.30;99.90
21019;DHT22;10667;51.056;3.732;2023-12-20T03:47:14;8.30;99.90
21019;DHT22;10667;51.056;3.732;2023-12-20T03:49:40;8.30;99.90
21019;DHT22;10667;51.056;3.732;2023-12-20T03:52:05;8.20;99.90
21019;DHT22;10667;51.056;3.732;2023-12-20T03:54:31;8.20;99.90
21019;DHT22;10667;51.056;3.732;2023-12-20T03:56:57;8.30;99.90
21019;DHT22;10667;51.056;3.732;2023-12-20T03:59:22;8.30;99.90
21019;DHT22;10667;51.056;3.732;2023-12-20T04:01:48;8.30;99.90
21019;DHT22;10667;51.056;3.732;2023-12-20T04:04:13;8.40;99.90
21019;DHT22;10667;51.056;3.732;2023-12-20T04:06:40;8.30;99.90
21019;DHT22;10667;51.056;3.732;2023-12-20T04:09:05;8.20;99.90
21019;DHT22;10667;51.056;3.732;2023-12-20T04:11:31;8.20;99.90
21019;DHT22;10667;51.056;3.732;2023-12-20T04:13:57;8.00;99.90
21019;DHT22;10667;51.056;3.732;2023-12-20T04:16:22;8.00;99.90
21019;DHT22;10667;51.056;3.732;2023-12-20T04:18:48;8.00;99.90
21019;DHT22;10667;51.056;3.732;2023-12-20T04:21:13;8.00;99.90
21019;DHT22;10667;51.056;3.732;2023-12-20T04:23:39;7.90;99.90
21019;DHT22;10667;51.056;3.732;2023-12-20T04:26:04;7.90;99.90
21019;DHT22;10667;51.056;3.732;2023-12-20T04:28:30;7.80;99.90
21019;DHT22;10667;51.056;3.732;2023-12-20T04:30:56;7.90;99.90
21019;DHT22;10667;51.056;3.732;2023-12-20T04:33:22;8.00;99.90
21019;DHT22;10667;51.056;3.732;2023-12-20T04:35:48;8.00;99.90
21019;DHT22;10667;51.056;3.732;2023-12-20T04:38:13;8.00;99.90
21019;DHT22;10667;51.056;3.732;2023-12-20T04:40:39;8.10;99.90
21019;DHT22;10667;51.056;3.732;2023-12-20T04:43:07;8.10;99.90
21019;DHT22;10667;51.056;3.732;2023-12-20T04:45:33;8.00;99.90
21019;DHT22;10667;51.056;3.732;2023-12-20T04:47:58;7.90;99.90
21019;DHT22;10667;51.056;3.732;2023-12-20T04:50:24;7.90;99.90
21019;DHT22;10667;51.056;3.732;2023-12-20T04:52:50;7.90;99.90
21019;DHT22;10667;51.056;3.732;2023-12-20T04:55:16;7.70;99.90
21019;DHT22;10667;51.056;3.732;2023-12-20T04:57:41;7.80;99.90
21019;DHT22;10667;51.056;3.732;2023-12-20T05:00:08;7.80;99.90
21019;DHT22;10667;51.056;3.732;2023-12-20T05:02:35;7.80;99.90
21019;DHT22;10667;51.056;3.732;2023-12-20T05:05:01;7.80;99.90
21019;DHT22;10667;51.056;3.732;2023-12-20T05:07:27;7.80;99.90
21019;DHT22;10667;51.056;3.732;2023-12-20T05:09:52;7.70;99.90
21019;DHT22;10667;51.056;3.732;2023-12-20T05:12:19;7.70;99.90
21019;DHT22;10667;51.056;3.732;2023-12-20T05:14:44;7.70;99.90
21019;DHT22;10667;51.056;3.732;2023-12-20T05:17:10;7.70;99.90
21019;DHT22;10667;51.056;3.732;2023-12-20T05:19:35;7.70;99.90
21019;DHT22;10667;51.056;3.732;2023-12-20T05:22:02;7.70;99.90
21019;DHT22;10667;51.056;3.732;2023-12-20T05:24:28;7.70;99.90
21019;DHT22;10667;51.056;3.732;2023-12-20T05:26:54;7.60;99.90
21019;DHT22;10667;51.056;3.732;2023-12-20T05:29:19;7.60;99.90
21019;DHT22;10667;51.056;3.732;2023-12-20T05:31:45;7.60;99.90
21019;DHT22;10667;51.056;3.732;2023-12-20T05:34:11;7.60;99.90
21019;DHT22;10667;51.056;3.732;2023-12-20T05:36:37;7.50;99.90
21019;DHT22;10667;51.056;3.732;2023-12-20T05:39:03;7.60;99.90
21019;DHT22;10667;51.056;3.732;2023-12-20T05:41:33;7.60;99.90
21019;DHT22;10667;51.056;3.732;2023-12-20T05:43:59;7.70;99.90
21019;DHT22;10667;51.056;3.732;2023-12-20T05:46:25;7.60;99.90
21019;DHT22;10667;51.056;3.732;2023-12-20T05:48:51;7.40;99.90
21019;DHT22;10667;51.056;3.732;2023-12-20T05:51:17;7.30;99.90
21019;DHT22;10667;51.056;3.732;2023-12-20T05:53:43;7.40;99.90
21019;DHT22;10667;51.056;3.732;2023-12-20T05:56:10;7.40;99.90
21019;DHT22;10667;51.056;3.732;2023-12-20T05:58:35;7.40;99.90
21019;DHT22;10667;51.056;3.732;2023-12-20T06:01:03;7.50;99.90
21019;DHT22;10667;51.056;3.732;2023-12-20T06:03:29;7.50;99.90
21019;DHT22;10667;51.056;3.732;2023-12-20T06:05:55;7.40;99.90
21019;DHT22;10667;51.056;3.732;2023-12-20T06:08:20;7.40;99.90
21019;DHT22;10667;51.056;3.732;2023-12-20T06:10:46;7.30;99.90
21019;DHT22;10667;51.056;3.732;2023-12-20T06:13:11;7.30;99.90
21019;DHT22;10667;51.056;3.732;2023-12-20T06:15:38;7.30;99.90
21019;DHT22;10667;51.056;3.732;2023-12-20T06:18:05;7.30;99.90
21019;DHT22;10667;51.056;3.732;2023-12-20T06:20:32;7.20;99.90
21019;DHT22;10667;51.056;3.732;2023-12-20T06:22:58;7.20;99.90
21019;DHT22;10667;51.056;3.732;2023-12-20T06:25:24;7.20;99.90
21019;DHT22;10667;51.056;3.732;2023-12-20T06:27:50;7.20;99.90
21019;DHT22;10667;51.056;3.732;2023-12-20T06:30:16;7.20;99.90
21019;DHT22;10667;51.056;3.732;2023-12-20T06:32:42;7.20;99.90
21019;DHT22;10667;51.056;3.732;2023-12-20T06:35:09;7.20;99.90
21019;DHT22;10667;51.056;3.732;2023-12-20T06:37:34;7.30;99.90
21019;DHT22;10667;51.056;3.732;2023-12-20T06:40:01;7.30;99.90
21019;DHT22;10667;51.056;3.732;2023-12-20T06:42:26;7.30;99.90
21019;DHT22;10667;51.056;3.732;2023-12-20T06:44:52;7.30;99.90
21019;DHT22;10667;51.056;3.732;2023-12-20T06:47:18;7.30;99.90
21019;DHT22;10667;51.056;3.732;2023-12-20T06:49:44;7.20;99.90
21019;DHT22;10667;51.056;3.732;2023-12-20T06:52:09;7.20;99.90
21019;DHT22;10667;51.056;3.732;2023-12-20T06:54:35;7.20;99.90
21019;DHT22;10667;51.056;3.732;2023-12-20T06:57:01;7.20;99.90
21019;DHT22;10667;51.056;3.732;2023-12-20T06:59:29;7.20;99.90
21019;DHT22;10667;51.056;3.732;2023-12-20T07:01:54;7.20;99.90
21019;DHT22;10667;51.056;3.732;2023-12-20T07:04:20;7.10;99.90
21019;DHT22;10667;51.056;3.732;2023-12-20T07:06:50;7.10;99.90
21019;DHT22;10667;51.056;3.732;2023-12-20T07:09:17;7.10;99.90
21019;DHT22;10667;51.056;3.732;2023-12-20T07:11:43;7.00;99.90
21019;DHT22;10667;51.056;3.732;2023-12-20T07:14:08;7.00;99.90
21019;DHT22;10667;51.056;3.732;2023-12-20T07:16:34;7.10;99.90
21019;DHT22;10667;51.056;3.732;2023-12-20T07:19:00;7.10;99.90
21019;DHT22;10667;51.056;3.732;2023-12-20T07:21:26;7.20;99.90
21019;DHT22;10667;51.056;3.732;2023-12-20T07:23:51;7.10;99.90
21019;DHT22;10667;51.056;3.732;2023-12-20T07:26:17;7.10;99.90
21019;DHT22;10667;51.056;3.732;2023-12-20T07:28:43;7.10;99.90
21019;DHT22;10667;51.056;3.732;2023-12-20T07:31:08;7.20;99.90
21019;DHT22;10667;51.056;3.732;2023-12-20T07:33:34;7.20;99.90
21019;DHT22;10667;51.056;3.732;2023-12-20T07:35:59;7.10;99.90
21019;DHT22;10667;51.056;3.732;2023-12-20T07:38:26;7.10;99.90
21019;DHT22;10667;51.056;3.732;2023-12-20T07:40:51;7.10;99.90
21019;DHT22;10667;51.056;3.732;2023-12-20T07:43:17;7.10;99.90
21019;DHT22;10667;51.056;3.732;2023-12-20T07:45:43;7.10;99.90
21019;DHT22;10667;51.056;3.732;2023-12-20T07:48:08;7.10;99.90
21019;DHT22;10667;51.056;3.732;2023-12-20T07:50:34;7.20;99.90
21019;DHT22;10667;51.056;3.732;2023-12-20T07:53:00;7.20;99.90
21019;DHT22;10667;51.056;3.732;2023-12-20T07:55:26;7.10;99.90
21019;DHT22;10667;51.056;3.732;2023-12-20T07:57:52;7.10;99.90
21019;DHT22;10667;51.056;3.732;2023-12-20T08:00:18;7.20;99.90
21019;DHT22;10667;51.056;3.732;2023-12-20T08:02:44;7.20;99.90
21019;DHT22;10667;51.056;3.732;2023-12-20T08:05:10;7.20;99.90
21019;DHT22;10667;51.056;3.732;2023-12-20T08:07:36;7.30;99.90
21019;DHT22;10667;51.056;3.732;2023-12-20T08:10:02;7.30;99.90
21019;DHT22;10667;51.056;3.732;2023-12-20T08:12:27;7.30;99.90
21019;DHT22;10667;51.056;3.732;2023-12-20T08:14:54;7.30;99.90
21019;DHT22;10667;51.056;3.732;2023-12-20T08:17:19;7.30;99.90
21019;DHT22;10667;51.056;3.732;2023-12-20T08:19:45;7.30;99.90
21019;DHT22;10667;51.056;3.732;2023-12-20T08:22:11;7.20;99.90
21019;DHT22;10667;51.056;3.732;2023-12-20T08:24:37;7.30;99.90
21019;DHT22;10667;51.056;3.732;2023-12-20T08:27:04;7.30;99.90
21019;DHT22;10667;51.056;3.732;2023-12-20T08:29:29;7.40;99.90
21019;DHT22;10667;51.056;3.732;2023-12-20T08:31:56;7.30;99.90
21019;DHT22;10667;51.056;3.732;2023-12-20T08:34:22;7.30;99.90
21019;DHT22;10667;51.056;3.732;2023-12-20T08:36:50;7.40;99.90
21019;DHT22;10667;51.056;3.732;2023-12-20T08:39:16;7.50;99.90
21019;DHT22;10667;51.056;3.732;2023-12-20T08:41:42;7.50;99.90
21019;DHT22;10667;51.056;3.732;2023-12-20T08:44:08;7.50;99.90
21019;DHT22;10667;51.056;3.732;2023-12-20T08:46:34;7.50;99.90
21019;DHT22;10667;51.056;3.732;2023-12-20T08:49:01;7.50;99.90
21019;DHT22;10667;51.056;3.732;2023-12-20T08:51:26;7.50;99.90
21019;DHT22;10667;51.056;3.732;2023-12-20T08:53:53;7.50;99.90
21019;DHT22;10667;51.056;3.732;2023-12-20T08:56:18;7.70;99.90
21019;DHT22;10667;51.056;3.732;2023-12-20T08:58:45;7.60;99.90
21019;DHT22;10667;51.056;3.732;2023-12-20T09:01:11;7.60;99.90
21019;DHT22;10667;51.056;3.732;2023-12-20T09:03:36;7.70;99.90
21019;DHT22;10667;51.056;3.732;2023-12-20T09:06:03;7.70;99.90
21019;DHT22;10667;51.056;3.732;2023-12-20T09:08:29;7.70;99.90
21019;DHT22;10667;51.056;3.732;2023-12-20T09:10:54;7.70;99.90
21019;DHT22;10667;51.056;3.732;2023-12-20T09:13:20;7.70;99.90
21019;DHT22;10667;51.056;3.732;2023-12-20T09:15:47;7.90;99.90
21019;DHT22;10667;51.056;3.732;2023-12-20T09:18:13;7.80;99.90
21019;DHT22;10667;51.056;3.732;2023-12-20T09:20:38;7.80;99.90
21019;DHT22;10667;51.056;3.732;2023-12-20T09:23:04;7.80;99.90
21019;DHT22;10667;51.056;3.732;2023-12-20T09:25:29;7.70;99.90
21019;DHT22;10667;51.056;3.732;2023-12-20T09:27:55;7.60;99.90
21019;DHT22;10667;51.056;3.732;2023-12-20T09:30:21;7.60;99.90
21019;DHT22;10667;51.056;3.732;2023-12-20T09:32:47;7.80;99.90
21019;DHT22;10667;51.056;3.732;2023-12-20T09:35:12;7.80;99.90
21019;DHT22;10667;51.056;3.732;2023-12-20T09:37:38;7.90;99.90
21019;DHT22;10667;51.056;3.732;2023-12-20T09:40:07;8.00;99.90
21019;DHT22;10667;51.056;3.732;2023-12-20T09:42:57;7.90;99.90
21019;DHT22;10667;51.056;3.732;2023-12-20T09:45:24;8.00;99.90
21019;DHT22;10667;51.056;3.732;2023-12-20T09:47:52;8.10;99.90
21019;DHT22;10667;51.056;3.732;2023-12-20T09:50:19;8.10;99.90
21019;DHT22;10667;51.056;3.732;2023-12-20T09:52:49;8.30;99.90
21019;DHT22;10667;51.056;3.732;2023-12-20T09:55:17;8.40;99.90
21019;DHT22;10667;51.056;3.732;2023-12-20T09:57:42;8.50;99.90
21019;DHT22;10667;51.056;3.732;2023-12-20T10:00:08;8.40;99.90
21019;DHT22;10667;51.056;3.732;2023-12-20T10:02:36;8.50;99.90
21019;DHT22;10667;51.056;3.732;2023-12-20T10:05:06;8.60;99.90
21019;DHT22;10667;51.056;3.732;2023-12-20T10:07:35;8.60;99.90
21019;DHT22;10667;51.056;3.732;2023-12-20T10:10:02;8.50;99.90
21019;DHT22;10667;51.056;3.732;2023-12-20T10:12:27;8.50;99.90
21019;DHT22;10667;51.056;3.732;2023-12-20T10:14:53;8.60;99.90
21019;DHT22;10667;51.056;3.732;2023-12-20T10:17:19;8.70;99.90
21019;DHT22;10667;51.056;3.732;2023-12-20T10:19:46;8.70;99.90
21019;DHT22;10667;51.056;3.732;2023-12-20T10:22:12;8.80;99.90
21019;DHT22;10667;51.056;3.732;2023-12-20T10:24:38;8.90;99.90
21019;DHT22;10667;51.056;3.732;2023-12-20T10:27:06;8.90;99.90
21019;DHT22;10667;51.056;3.732;2023-12-20T10:29:38;8.80;99.90
21019;DHT22;10667;51.056;3.732;2023-12-20T10:32:24;9.00;99.90
21019;DHT22;10667;51.056;3.732;2023-12-20T10:34:50;9.00;99.90
21019;DHT22;10667;51.056;3.732;2023-12-20T10:37:16;8.90;99.90
21019;DHT22;10667;51.056;3.732;2023-12-20T10:39:43;8.90;99.90
21019;DHT22;10667;51.056;3.732;2023-12-20T10:42:12;9.00;99.90
21019;DHT22;10667;51.056;3.732;2023-12-20T10:44:38;9.00;99.90
21019;DHT22;10667;51.056;3.732;2023-12-20T10:47:05;8.80;99.90
21019;DHT22;10667;51.056;3.732;2023-12-20T10:49:32;8.80;99.90
21019;DHT22;10667;51.056;3.732;2023-12-20T10:52:02;8.80;99.90
21019;DHT22;10667;51.056;3.732;2023-12-20T10:54:29;8.80;99.90
21019;DHT22;10667;51.056;3.732;2023-12-20T10:56:58;8.80;99.90
21019;DHT22;10667;51.056;3.732;2023-12-20T10:59:24;8.80;99.90
21019;DHT22;10667;51.056;3.732;2023-12-20T11:01:50;8.80;99.90
21019;DHT22;10667;51.056;3.732;2023-12-20T11:04:25;8.80;99.90
21019;DHT22;10667;51.056;3.732;2023-12-20T11:06:56;8.90;99.90
21019;DHT22;10667;51.056;3.732;2023-12-20T11:09:44;8.90;99.90
21019;DHT22;10667;51.056;3.732;2023-12-20T11:12:16;8.90;99.90
21019;DHT22;10667;51.056;3.732;2023-12-20T11:14:46;9.00;99.90
21019;DHT22;10667;51.056;3.732;2023-12-20T11:17:12;9.10;99.90
21019;DHT22;10667;51.056;3.732;2023-12-20T11:22:27;9.20;99.90
21019;DHT22;10667;51.056;3.732;2023-12-20T11:25:04;9.10;99.90
21019;DHT22;10667;51.056;3.732;2023-12-20T11:27:31;9.00;99.90
21019;DHT22;10667;51.056;3.732;2023-12-20T11:29:58;9.00;99.90
21019;DHT22;10667;51.056;3.732;2023-12-20T11:34:51;9.30;99.90
21019;DHT22;10667;51.056;3.732;2023-12-20T11:37:19;9.20;99.90
21019;DHT22;10667;51.056;3.732;2023-12-20T11:39:45;9.10;99.90
21019;DHT22;10667;51.056;3.732;2023-12-20T11:42:11;9.20;99.90
21019;DHT22;10667;51.056;3.732;2023-12-20T11:44:38;9.20;99.90
21019;DHT22;10667;51.056;3.732;2023-12-20T11:47:04;9.20;99.90
21019;DHT22;10667;51.056;3.732;2023-12-20T11:49:29;9.30;99.90
21019;DHT22;10667;51.056;3.732;2023-12-20T11:51:56;9.20;99.90
21019;DHT22;10667;51.056;3.732;2023-12-20T11:54:22;9.30;99.90
21019;DHT22;10667;51.056;3.732;2023-12-20T11:56:48;9.40;99.90
21019;DHT22;10667;51.056;3.732;2023-12-20T11:59:14;9.50;99.90
21019;DHT22;10667;51.056;3.732;2023-12-20T12:01:40;9.40;99.90
21019;DHT22;10667;51.056;3.732;2023-12-20T12:04:12;9.30;99.90
21019;DHT22;10667;51.056;3.732;2023-12-20T12:06:38;9.30;99.90
21019;DHT22;10667;51.056;3.732;2023-12-20T12:09:04;9.30;99.90
21019;DHT22;10667;51.056;3.732;2023-12-20T12:11:30;9.30;99.90
21019;DHT22;10667;51.056;3.732;2023-12-20T12:13:55;9.40;99.90
21019;DHT22;10667;51.056;3.732;2023-12-20T12:16:22;9.30;99.90
21019;DHT22;10667;51.056;3.732;2023-12-20T12:18:56;9.40;99.90
21019;DHT22;10667;51.056;3.732;2023-12-20T12:21:21;9.40;99.90
21019;DHT22;10667;51.056;3.732;2023-12-20T12:23:47;9.40;99.90
21019;DHT22;10667;51.056;3.732;2023-12-20T12:26:12;9.50;99.90
21019;DHT22;10667;51.056;3.732;2023-12-20T12:28:42;9.50;99.90
21019;DHT22;10667;51.056;3.732;2023-12-20T12:31:08;9.40;99.90
21019;DHT22;10667;51.056;3.732;2023-12-20T12:33:34;9.40;99.90
21019;DHT22;10667;51.056;3.732;2023-12-20T12:36:03;9.30;99.90
21019;DHT22;10667;51.056;3.732;2023-12-20T12:38:31;9.40;99.90
21019;DHT22;10667;51.056;3.732;2023-12-20T12:40:56;9.40;99.90
21019;DHT22;10667;51.056;3.732;2023-12-20T12:43:23;9.50;99.90
21019;DHT22;10667;51.056;3.732;2023-12-20T12:45:49;9.70;99.90
21019;DHT22;10667;51.056;3.732;2023-12-20T12:48:14;9.80;99.90
21019;DHT22;10667;51.056;3.732;2023-12-20T12:50:40;9.80;99.90
21019;DHT22;10667;51.056;3.732;2023-12-20T12:53:06;9.90;99.90
21019;DHT22;10667;51.056;3.732;2023-12-20T12:55:32;10.00;99.90
21019;DHT22;10667;51.056;3.732;2023-12-20T12:57:58;10.00;99.90
21019;DHT22;10667;51.056;3.732;2023-12-20T13:00:23;10.00;99.90
21019;DHT22;10667;51.056;3.732;2023-12-20T13:02:50;10.10;99.90
21019;DHT22;10667;51.056;3.732;2023-12-20T13:05:16;10.20;99.90
21019;DHT22;10667;51.056;3.732;2023-12-20T13:07:43;10.30;99.90
21019;DHT22;10667;51.056;3.732;2023-12-20T13:10:10;10.30;99.90
21019;DHT22;10667;51.056;3.732;2023-12-20T13:12:36;10.30;99.90
21019;DHT22;10667;51.056;3.732;2023-12-20T13:15:02;10.30;99.90
21019;DHT22;10667;51.056;3.732;2023-12-20T13:17:29;10.40;99.90
21019;DHT22;10667;51.056;3.732;2023-12-20T13:19:55;10.40;99.90
21019;DHT22;10667;51.056;3.732;2023-12-20T13:22:20;10.50;99.90
21019;DHT22;10667;51.056;3.732;2023-12-20T13:24:46;10.40;99.90
21019;DHT22;10667;51.056;3.732;2023-12-20T13:27:12;10.40;99.90
21019;DHT22;10667;51.056;3.732;2023-12-20T13:29:37;10.30;99.90
21019;DHT22;10667;51.056;3.732;2023-12-20T13:32:03;10.30;99.90
21019;DHT22;10667;51.056;3.732;2023-12-20T13:34:29;10.30;99.90
21019;DHT22;10667;51.056;3.732;2023-12-20T13:36:55;10.40;99.90
21019;DHT22;10667;51.056;3.732;2023-12-20T13:39:22;10.30;99.90
21019;DHT22;10667;51.056;3.732;2023-12-20T13:41:47;10.40;99.90
21019;DHT22;10667;51.056;3.732;2023-12-20T13:44:13;10.30;99.90
21019;DHT22;10667;51.056;3.732;2023-12-20T13:46:39;10.30;99.90
21019;DHT22;10667;51.056;3.732;2023-12-20T13:49:05;10.40;99.90
21019;DHT22;10667;51.056;3.732;2023-12-20T13:51:31;10.40;99.90
21019;DHT22;10667;51.056;3.732;2023-12-20T13:53:56;10.30;99.90
21019;DHT22;10667;51.056;3.732;2023-12-20T13:56:23;10.50;99.90
21019;DHT22;10667;51.056;3.732;2023-12-20T13:58:49;10.50;99.90
21019;DHT22;10667;51.056;3.732;2023-12-20T14:01:16;10.30;99.90
21019;DHT22;10667;51.056;3.732;2023-12-20T14:03:41;10.20;99.90
21019;DHT22;10667;51.056;3.732;2023-12-20T14:06:07;10.30;99.90
21019;DHT22;10667;51.056;3.732;2023-12-20T14:08:33;10.40;99.90
21019;DHT22;10667;51.056;3.732;2023-12-20T14:10:59;10.40;99.90
21019;DHT22;10667;51.056;3.732;2023-12-20T14:13:26;10.60;99.90
21019;DHT22;10667;51.056;3.732;2023-12-20T14:15:52;10.60;99.90
21019;DHT22;10667;51.056;3.732;2023-12-20T14:18:19;10.50;99.90
21019;DHT22;10667;51.056;3.732;2023-12-20T14:20:45;10.50;99.90
21019;DHT22;10667;51.056;3.732;2023-12-20T14:23:12;10.60;99.90
21019;DHT22;10667;51.056;3.732;2023-12-20T14:25:41;10.50;99.90
21019;DHT22;10667;51.056;3.732;2023-12-20T14:28:06;10.50;99.90
21019;DHT22;10667;51.056;3.732;2023-12-20T14:30:32;10.60;99.90
21019;DHT22;10667;51.056;3.732;2023-12-20T14:32:58;10.50;99.90
21019;DHT22;10667;51.056;3.732;2023-12-20T14:35:23;10.40;99.90
21019;DHT22;10667;51.056;3.732;2023-12-20T14:37:49;10.50;99.90
21019;DHT22;10667;51.056;3.732;2023-12-20T14:40:16;10.50;99.90
21019;DHT22;10667;51.056;3.732;2023-12-20T14:42:45;10.40;99.90
21019;DHT22;10667;51.056;3.732;2023-12-20T14:45:11;10.40;99.90
21019;DHT22;10667;51.056;3.732;2023-12-20T14:47:39;10.30;99.90
21019;DHT22;10667;51.056;3.732;2023-12-20T14:50:05;10.30;99.90
21019;DHT22;10667;51.056;3.732;2023-12-20T14:52:32;10.40;99.90
21019;DHT22;10667;51.056;3.732;2023-12-20T14:54:59;10.40;99.90
21019;DHT22;10667;51.056;3.732;2023-12-20T14:57:25;10.30;99.90
21019;DHT22;10667;51.056;3.732;2023-12-20T14:59:52;10.40;99.90
21019;DHT22;10667;51.056;3.732;2023-12-20T15:02:17;10.40;99.90
21019;DHT22;10667;51.056;3.732;2023-12-20T15:04:43;10.30;99.90
21019;DHT22;10667;51.056;3.732;2023-12-20T15:07:09;10.20;99.90
21019;DHT22;10667;51.056;3.732;2023-12-20T15:09:34;10.20;99.90
21019;DHT22;10667;51.056;3.732;2023-12-20T15:12:00;10.20;99.90
21019;DHT22;10667;51.056;3.732;2023-12-20T15:14:26;10.20;99.90
21019;DHT22;10667;51.056;3.732;2023-12-20T15:16:53;10.30;99.90
21019;DHT22;10667;51.056;3.732;2023-12-20T15:19:20;10.40;99.90
21019;DHT22;10667;51.056;3.732;2023-12-20T15:21:46;10.40;99.90
21019;DHT22;10667;51.056;3.732;2023-12-20T15:24:12;10.50;99.90
21019;DHT22;10667;51.056;3.732;2023-12-20T15:26:43;10.50;99.90
21019;DHT22;10667;51.056;3.732;2023-12-20T15:29:09;10.40;99.90
21019;DHT22;10667;51.056;3.732;2023-12-20T15:31:41;10.40;99.90
21019;DHT22;10667;51.056;3.732;2023-12-20T15:34:07;10.30;99.90
21019;DHT22;10667;51.056;3.732;2023-12-20T15:36:32;10.30;99.90
21019;DHT22;10667;51.056;3.732;2023-12-20T15:38:58;10.40;99.90
21019;DHT22;10667;51.056;3.732;2023-12-20T15:41:24;10.40;99.90